Time;durP1;ratioP1;P1;durP2;ratioP2;P2;SDS_P1;SDS_P2;PMS_P1;PMS_P2;Temp;Humidity;BMP_temperature;BMP_pressure;BME280_temperature;BME280_humidity;BME280_pressure;Samples;Min_cycle;Max_cycle;Signal;HPM_P1;HPM_P2
2023/08/18 00:00:15;;;;;;;10.87;9.97;;;26.90;46.90;;;;;;5136313;27;20163;-55
2023/08/18 00:02:41;;;;;;;11.23;10.17;;;26.90;46.80;;;;;;5136647;27;20446;-50
2023/08/18 00:05:08;;;;;;;12.03;10.93;;;26.90;46.80;;;;;;5136039;27;20444;-55
2023/08/18 00:07:34;;;;;;;11.10;10.07;;;26.90;46.70;;;;;;5136173;27;20495;-53
2023/08/18 00:10:04;;;;;;;12.00;10.50;;;26.90;46.90;;;;;;5136322;27;20453;-54
2023/08/18 00:12:30;;;;;;;17.37;10.30;;;26.90;47.00;;;;;;5136167;27;20491;-54
2023/08/18 00:14:56;;;;;;;11.43;10.30;;;26.80;46.80;;;;;;5135787;27;20868;-53
2023/08/18 00:17:22;;;;;;;12.87;11.77;;;26.70;46.90;;;;;;5134874;27;20462;-52
2023/08/18 00:19:48;;;;;;;11.33;10.20;;;26.70;47.10;;;;;;5136071;27;20408;-55
2023/08/18 00:22:13;;;;;;;12.30;11.00;;;26.70;47.10;;;;;;5134755;27;20418;-55
2023/08/18 00:24:39;;;;;;;12.60;11.50;;;26.70;47.00;;;;;;5135645;27;20408;-52
2023/08/18 00:27:05;;;;;;;11.90;10.83;;;26.70;47.10;;;;;;5136011;27;20401;-53
2023/08/18 00:29:31;;;;;;;12.07;10.80;;;26.60;47.10;;;;;;5135879;27;20194;-54
2023/08/18 00:31:59;;;;;;;10.60;9.70;;;26.50;47.20;;;;;;5135869;27;20769;-52
2023/08/18 00:34:25;;;;;;;11.67;10.67;;;26.50;47.40;;;;;;5135328;27;20427;-53
2023/08/18 00:36:50;;;;;;;11.10;9.83;;;26.50;47.50;;;;;;5135737;27;20511;-53
2023/08/18 00:39:16;;;;;;;10.90;9.97;;;26.50;47.40;;;;;;5135722;27;20511;-53
2023/08/18 00:41:42;;;;;;;11.47;10.53;;;26.50;47.40;;;;;;5135701;27;20752;-55
2023/08/18 00:44:08;;;;;;;10.70;9.90;;;26.50;47.50;;;;;;5135382;27;20439;-53
2023/08/18 00:46:34;;;;;;;10.90;10.00;;;26.50;47.60;;;;;;5135618;27;20432;-53
2023/08/18 00:49:04;;;;;;;10.47;9.57;;;26.40;47.30;;;;;;5135459;27;20198;-51
2023/08/18 00:51:32;;;;;;;9.33;8.57;;;26.40;47.40;;;;;;5134210;27;20412;-55
2023/08/18 00:53:59;;;;;;;13.43;10.47;;;26.40;47.40;;;;;;5135337;27;20461;-51
2023/08/18 00:56:25;;;;;;;11.60;10.60;;;26.40;47.60;;;;;;5135408;27;20424;-52
2023/08/18 00:58:51;;;;;;;11.60;10.50;;;26.40;47.70;;;;;;5135367;27;20411;-55
2023/08/18 01:01:17;;;;;;;10.53;9.53;;;26.40;47.70;;;;;;5135342;27;20397;-54
2023/08/18 01:03:44;;;;;;;12.53;10.30;;;26.30;47.40;;;;;;5135247;27;20400;-53
2023/08/18 01:06:10;;;;;;;12.43;11.33;;;26.30;47.60;;;;;;5134922;27;20428;-54
2023/08/18 01:08:36;;;;;;;11.17;10.27;;;26.30;47.60;;;;;;5134958;27;20870;-51
2023/08/18 01:11:02;;;;;;;12.13;11.13;;;26.20;47.80;;;;;;5135189;27;20573;-53
2023/08/18 01:13:43;;;;;;;11.23;10.33;;;26.20;48.00;;;;;;5134994;27;20400;-54
2023/08/18 01:16:17;;;;;;;11.87;10.77;;;26.20;48.10;;;;;;5134778;27;20209;-53
2023/08/18 01:18:44;;;;;;;13.70;11.40;;;26.20;48.00;;;;;;5134980;27;20408;-53
2023/08/18 01:21:12;;;;;;;12.40;11.30;;;26.20;47.90;;;;;;5133559;27;20952;-53
2023/08/18 01:23:41;;;;;;;11.47;10.47;;;26.20;47.90;;;;;;5134837;27;20412;-54
2023/08/18 01:26:07;;;;;;;11.17;10.20;;;26.10;48.00;;;;;;5134651;27;20435;-53
2023/08/18 01:28:36;;;;;;;11.03;10.13;;;26.10;48.00;;;;;;5134920;27;20779;-57
2023/08/18 01:31:10;;;;;;;10.80;9.70;;;26.00;48.20;;;;;;5134712;27;20389;-55
2023/08/18 01:33:45;;;;;;;10.23;9.33;;;25.90;47.80;;;;;;5134620;27;20750;-53
2023/08/18 01:36:27;;;;;;;12.90;11.60;;;25.90;48.00;;;;;;5134272;27;20524;-57
2023/08/18 01:38:55;;;;;;;11.63;10.53;;;25.90;48.20;;;;;;5134842;27;20395;-52
2023/08/18 01:41:23;;;;;;;11.50;10.40;;;25.90;48.20;;;;;;5134555;27;20453;-52
2023/08/18 01:43:50;;;;;;;12.50;11.33;;;25.90;48.20;;;;;;5134414;27;20407;-55
2023/08/18 01:46:16;;;;;;;12.07;10.97;;;25.90;48.10;;;;;;5133676;27;20455;-53
2023/08/18 01:48:42;;;;;;;12.47;11.30;;;25.90;48.10;;;;;;5134110;27;20537;-52
2023/08/18 01:51:07;;;;;;;12.57;11.27;;;25.90;48.20;;;;;;5134379;27;20163;-55
2023/08/18 01:53:33;;;;;;;11.97;11.00;;;25.80;48.20;;;;;;5134285;27;20167;-51
2023/08/18 01:56:01;;;;;;;12.30;11.00;;;25.80;48.30;;;;;;5133875;27;20210;-53
2023/08/18 01:58:27;;;;;;;11.17;10.17;;;25.80;48.30;;;;;;5134046;27;20396;-54
2023/08/18 02:00:56;;;;;;;14.00;11.40;;;25.80;48.20;;;;;;5134056;27;20499;-52
2023/08/18 02:03:24;;;;;;;10.90;9.97;;;25.80;48.20;;;;;;5134330;27;20460;-53
2023/08/18 02:05:52;;;;;;;12.10;10.93;;;25.70;48.20;;;;;;5133725;27;20952;-51
2023/08/18 02:08:19;;;;;;;12.50;11.50;;;25.70;48.50;;;;;;5133890;27;20447;-53
2023/08/18 02:10:44;;;;;;;11.87;10.87;;;25.60;48.60;;;;;;5133988;27;20445;-54
2023/08/18 02:13:10;;;;;;;11.63;10.60;;;25.70;48.60;;;;;;5133733;27;20408;-51
2023/08/18 02:15:36;;;;;;;12.83;10.47;;;25.60;48.50;;;;;;5133782;27;20496;-53
2023/08/18 02:18:04;;;;;;;13.90;10.90;;;25.60;48.50;;;;;;5132523;27;20404;-55
2023/08/18 02:20:30;;;;;;;12.87;11.63;;;25.60;49.30;;;;;;5133870;27;20174;-53
2023/08/18 02:22:55;;;;;;;12.93;11.73;;;25.60;49.30;;;;;;5133723;27;20423;-53
2023/08/18 02:25:22;;;;;;;12.40;11.20;;;25.60;49.40;;;;;;5133360;27;20789;-56
2023/08/18 02:27:49;;;;;;;12.53;11.07;;;25.60;48.70;;;;;;5133309;27;20404;-53
2023/08/18 02:30:15;;;;;;;12.10;11.10;;;25.60;48.60;;;;;;5133760;27;20435;-53
2023/08/18 02:32:41;;;;;;;11.33;10.30;;;25.60;49.20;;;;;;5133434;27;20762;-54
2023/08/18 02:35:07;;;;;;;13.73;11.63;;;25.50;48.40;;;;;;5133097;27;20454;-52
2023/08/18 02:37:33;;;;;;;12.83;11.73;;;25.50;48.30;;;;;;5133610;27;20400;-55
2023/08/18 02:39:59;;;;;;;13.80;11.73;;;25.40;48.40;;;;;;5133473;27;20413;-56
2023/08/18 02:42:25;;;;;;;12.10;11.00;;;25.40;48.50;;;;;;5133495;27;20449;-52
2023/08/18 02:44:51;;;;;;;12.80;11.60;;;25.40;48.70;;;;;;5133064;27;20504;-51
2023/08/18 02:47:17;;;;;;;11.33;10.33;;;25.30;48.80;;;;;;5133421;27;20194;-53
2023/08/18 02:49:42;;;;;;;12.20;11.10;;;25.30;48.90;;;;;;5133159;27;20255;-53
2023/08/18 02:52:10;;;;;;;12.57;11.47;;;25.20;49.10;;;;;;5133306;27;20400;-55
2023/08/18 02:54:36;;;;;;;12.77;11.57;;;25.30;49.00;;;;;;5132969;27;20159;-53
2023/08/18 02:57:01;;;;;;;13.23;11.80;;;25.20;48.90;;;;;;5133072;27;20487;-51
2023/08/18 02:59:27;;;;;;;12.00;10.90;;;25.20;49.00;;;;;;5132121;27;20181;-53
2023/08/18 03:01:54;;;;;;;14.00;12.80;;;25.20;49.00;;;;;;5133160;27;20171;-54
2023/08/18 03:04:20;;;;;;;14.67;13.20;;;25.20;49.00;;;;;;5132831;27;20432;-52
2023/08/18 03:06:45;;;;;;;12.53;11.43;;;25.20;49.00;;;;;;5132963;27;20467;-55
2023/08/18 03:09:11;;;;;;;14.27;12.87;;;25.20;49.20;;;;;;5133260;27;20222;-53
2023/08/18 03:11:37;;;;;;;13.13;11.87;;;25.20;49.30;;;;;;5132877;28;20596;-52
2023/08/18 03:14:05;;;;;;;13.40;12.20;;;25.20;49.50;;;;;;5133144;27;20194;-56
2023/08/18 03:16:31;;;;;;;14.20;12.63;;;25.20;49.40;;;;;;5132832;27;20182;-53
2023/08/18 03:18:57;;;;;;;15.40;11.93;;;25.10;49.40;;;;;;5132944;27;20412;-54
2023/08/18 03:21:23;;;;;;;15.33;13.77;;;25.20;49.50;;;;;;5133309;27;20174;-54
2023/08/18 03:23:48;;;;;;;21.20;12.90;;;25.10;49.60;;;;;;5132846;28;20171;-52
2023/08/18 03:26:14;;;;;;;13.93;12.43;;;25.10;49.60;;;;;;5132748;28;20432;-53
2023/08/18 03:28:40;;;;;;;14.63;13.23;;;25.10;49.60;;;;;;5132729;27;20638;-55
2023/08/18 03:31:07;;;;;;;15.53;13.97;;;25.10;49.60;;;;;;5132863;27;20167;-53
2023/08/18 03:33:34;;;;;;;14.33;13.03;;;25.10;49.60;;;;;;5132849;27;20198;-52
2023/08/18 03:36:00;;;;;;;13.93;12.73;;;25.10;49.70;;;;;;5132368;27;20531;-56
2023/08/18 03:38:27;;;;;;;13.67;12.63;;;25.10;49.70;;;;;;5132698;27;20483;-52
2023/08/18 03:41:19;;;;;;;14.00;12.70;;;25.10;49.60;;;;;;5132604;27;20654;-55
2023/08/18 03:43:45;;;;;;;12.50;11.33;;;25.10;49.50;;;;;;5131514;27;20424;-55
2023/08/18 03:46:27;;;;;;;12.80;11.60;;;25.10;49.50;;;;;;5132394;27;20767;-52
2023/08/18 03:48:53;;;;;;;14.30;12.00;;;25.10;49.50;;;;;;5132535;27;20202;-55
2023/08/18 03:51:19;;;;;;;12.90;11.70;;;25.00;49.50;;;;;;5132530;27;20399;-51
2023/08/18 03:53:45;;;;;;;12.93;11.73;;;25.00;49.60;;;;;;5132620;28;20396;-52
2023/08/18 03:56:11;;;;;;;12.47;11.33;;;25.00;49.50;;;;;;5132264;27;20416;-56
2023/08/18 03:58:37;;;;;;;11.43;10.43;;;25.00;49.50;;;;;;5132584;27;20457;-51
2023/08/18 04:01:06;;;;;;;13.50;12.30;;;25.10;49.60;;;;;;5132605;27;20404;-53
2023/08/18 04:03:35;;;;;;;11.83;10.67;;;25.00;49.50;;;;;;5132350;27;20412;-55
2023/08/18 04:06:03;;;;;;;12.00;10.63;;;25.00;49.50;;;;;;5132474;27;20428;-52
2023/08/18 04:08:33;;;;;;;13.13;11.93;;;25.00;49.50;;;;;;5132631;27;20480;-56
2023/08/18 04:10:59;;;;;;;12.60;11.40;;;24.90;49.50;;;;;;5135065;27;20423;-53
2023/08/18 04:13:25;;;;;;;12.80;11.50;;;24.90;49.70;;;;;;5136196;27;20423;-52
2023/08/18 04:15:51;;;;;;;12.37;10.70;;;24.90;49.80;;;;;;5135946;27;20183;-53
2023/08/18 04:18:17;;;;;;;12.87;11.57;;;24.90;49.90;;;;;;5136493;27;20888;-54
2023/08/18 04:20:42;;;;;;;12.57;11.40;;;24.90;50.10;;;;;;5136100;27;20446;-52
2023/08/18 04:23:08;;;;;;;13.37;11.23;;;24.90;50.30;;;;;;5136282;27;20214;-57
2023/08/18 04:25:34;;;;;;;11.30;10.40;;;24.90;50.40;;;;;;5135783;27;20205;-52
2023/08/18 04:28:00;;;;;;;13.40;11.73;;;24.90;50.40;;;;;;5136244;27;20219;-54
2023/08/18 04:30:26;;;;;;;12.07;10.73;;;24.90;50.50;;;;;;5135998;27;20636;-56
2023/08/18 04:32:51;;;;;;;11.10;10.20;;;25.00;50.50;;;;;;5135953;27;20685;-57
2023/08/18 04:35:17;;;;;;;12.93;11.73;;;25.00;50.40;;;;;;5135568;27;20230;-53
2023/08/18 04:37:43;;;;;;;17.63;10.90;;;25.00;50.50;;;;;;5135984;27;20529;-55
2023/08/18 04:40:10;;;;;;;12.00;10.50;;;25.00;50.90;;;;;;5136012;27;20171;-56
2023/08/18 04:42:35;;;;;;;15.70;11.47;;;25.10;50.60;;;;;;5135674;27;20435;-53
2023/08/18 04:45:01;;;;;;;11.13;10.00;;;25.10;50.50;;;;;;5135338;27;20451;-57
2023/08/18 04:47:27;;;;;;;12.27;11.07;;;25.10;50.60;;;;;;5135535;27;20178;-52
2023/08/18 04:49:53;;;;;;;13.30;12.10;;;25.20;50.70;;;;;;5135424;27;20527;-53
2023/08/18 04:52:19;;;;;;;11.47;10.47;;;25.30;50.70;;;;;;5135682;27;20171;-56
2023/08/18 04:54:45;;;;;;;11.47;10.47;;;25.30;50.40;;;;;;5135274;27;20173;-55
2023/08/18 04:57:10;;;;;;;12.00;11.00;;;25.30;50.40;;;;;;5135381;27;20400;-53
2023/08/18 04:59:36;;;;;;;12.37;11.13;;;25.40;50.40;;;;;;5135277;27;20407;-59
2023/08/18 05:02:02;;;;;;;11.37;10.37;;;25.40;50.40;;;;;;5135100;27;20223;-57
2023/08/18 05:04:28;;;;;;;12.63;11.40;;;25.40;50.40;;;;;;5135208;27;20396;-53
2023/08/18 05:06:54;;;;;;;12.20;11.10;;;25.50;50.50;;;;;;5135108;27;20453;-53
2023/08/18 05:09:20;;;;;;;12.77;11.50;;;25.50;50.70;;;;;;5135077;27;20206;-57
2023/08/18 05:11:46;;;;;;;13.77;12.37;;;25.60;50.80;;;;;;5135137;27;20980;-54
2023/08/18 05:14:12;;;;;;;12.83;11.07;;;25.60;50.60;;;;;;5134988;27;20407;-53
2023/08/18 05:16:38;;;;;;;12.27;11.07;;;25.70;50.70;;;;;;5134871;27;20183;-54
2023/08/18 05:19:04;;;;;;;14.47;11.80;;;25.70;50.80;;;;;;5134949;27;20782;-57
2023/08/18 05:21:30;;;;;;;11.57;10.43;;;25.80;50.70;;;;;;5134122;27;20175;-51
2023/08/18 05:23:56;;;;;;;14.00;12.47;;;25.90;50.60;;;;;;5134878;27;20494;-54
2023/08/18 05:26:21;;;;;;;11.90;10.90;;;25.90;50.40;;;;;;5134842;27;20194;-56
2023/08/18 05:28:47;;;;;;;12.10;10.73;;;25.90;50.50;;;;;;5134747;27;20243;-53
2023/08/18 05:31:15;;;;;;;11.93;10.87;;;26.00;51.00;;;;;;5134655;27;20175;-54
2023/08/18 05:33:41;;;;;;;13.03;11.73;;;26.00;50.90;;;;;;5134704;27;20163;-55
2023/08/18 05:36:07;;;;;;;13.27;12.17;;;26.10;50.80;;;;;;5134276;27;20435;-55
2023/08/18 05:38:33;;;;;;;13.23;11.93;;;26.10;50.90;;;;;;5134514;27;20495;-52
2023/08/18 05:41:11;;;;;;;12.87;11.70;;;26.20;50.90;;;;;;5134551;27;20408;-58
2023/08/18 05:43:37;;;;;;;11.90;10.90;;;26.30;50.60;;;;;;5134460;27;20753;-51
2023/08/18 05:46:04;;;;;;;13.00;11.70;;;26.30;50.50;;;;;;5134098;27;20778;-53
2023/08/18 05:48:32;;;;;;;13.07;11.73;;;26.40;50.50;;;;;;5134324;27;21013;-56
2023/08/18 05:50:58;;;;;;;13.10;12.00;;;26.40;50.10;;;;;;5134317;27;20400;-52
2023/08/18 05:53:24;;;;;;;11.77;10.73;;;26.50;50.10;;;;;;5134223;27;20404;-51
2023/08/18 05:55:51;;;;;;;13.80;12.50;;;26.50;50.10;;;;;;5134193;27;20476;-53
2023/08/18 05:58:16;;;;;;;12.63;11.43;;;26.60;50.00;;;;;;5134052;27;20412;-57
2023/08/18 06:00:42;;;;;;;11.30;10.30;;;26.70;49.70;;;;;;5134144;27;20412;-53
2023/08/18 06:03:08;;;;;;;13.17;12.00;;;26.70;49.70;;;;;;5134101;27;20170;-52
2023/08/18 06:05:35;;;;;;;14.00;12.27;;;26.70;50.40;;;;;;5133740;27;20451;-57
2023/08/18 06:08:00;;;;;;;15.23;13.53;;;26.80;49.60;;;;;;5132637;27;20242;-56
2023/08/18 06:10:26;;;;;;;14.07;12.87;;;26.80;48.40;;;;;;5133935;27;20484;-52
2023/08/18 06:12:52;;;;;;;15.23;13.83;;;26.90;47.70;;;;;;5133848;27;20230;-56
2023/08/18 06:15:19;;;;;;;13.60;12.30;;;26.80;47.60;;;;;;5133827;27;20263;-55
2023/08/18 06:17:47;;;;;;;15.30;13.90;;;26.80;48.00;;;;;;5133816;27;20479;-52
2023/08/18 06:20:13;;;;;;;14.43;12.57;;;26.90;48.80;;;;;;5133952;27;20506;-56
2023/08/18 06:22:39;;;;;;;15.37;13.87;;;26.90;48.20;;;;;;5133720;27;20397;-53
2023/08/18 06:25:07;;;;;;;15.47;13.97;;;27.00;49.40;;;;;;5133354;27;20947;-52
2023/08/18 06:27:33;;;;;;;14.53;13.23;;;27.10;48.60;;;;;;5133543;27;20404;-55
2023/08/18 06:29:59;;;;;;;16.10;14.47;;;27.10;47.70;;;;;;5133482;27;20450;-53
2023/08/18 06:32:25;;;;;;;15.10;13.70;;;27.10;47.70;;;;;;5133371;27;20440;-51
2023/08/18 06:34:51;;;;;;;13.70;12.33;;;27.10;48.30;;;;;;5133314;27;20779;-57
2023/08/18 06:37:18;;;;;;;14.30;12.80;;;27.20;48.60;;;;;;5133454;27;20404;-57
2023/08/18 06:39:45;;;;;;;15.13;13.60;;;27.30;48.20;;;;;;5133442;27;20504;-53
2023/08/18 06:42:12;;;;;;;16.53;14.70;;;27.30;48.10;;;;;;5133577;27;20412;-58
2023/08/18 06:44:37;;;;;;;17.50;15.70;;;27.40;47.30;;;;;;5133072;27;20404;-52
2023/08/18 06:47:04;;;;;;;17.63;16.03;;;27.40;47.30;;;;;;5133422;27;20936;-53
2023/08/18 06:49:29;;;;;;;17.57;15.87;;;27.40;47.40;;;;;;5133231;27;20205;-58
2023/08/18 06:51:55;;;;;;;15.37;13.93;;;27.40;47.70;;;;;;5133273;27;20401;-56
2023/08/18 06:54:21;;;;;;;16.57;14.93;;;27.40;47.60;;;;;;5133230;27;20245;-50
2023/08/18 06:56:47;;;;;;;17.07;15.30;;;27.50;47.30;;;;;;5133097;27;20204;-53
2023/08/18 06:59:13;;;;;;;16.17;14.67;;;27.50;46.80;;;;;;5133300;27;20408;-55
2023/08/18 07:01:40;;;;;;;17.07;15.30;;;27.40;47.80;;;;;;5133309;27;20412;-53
2023/08/18 07:04:10;;;;;;;17.23;15.50;;;27.50;47.70;;;;;;5133001;27;20440;-57
2023/08/18 07:06:36;;;;;;;18.03;14.90;;;27.60;47.20;;;;;;5132996;27;20424;-56
2023/08/18 07:09:03;;;;;;;17.40;15.60;;;27.70;47.60;;;;;;5132868;27;20459;-53
2023/08/18 07:11:29;;;;;;;14.60;13.37;;;27.80;48.20;;;;;;5133027;27;20897;-54
2023/08/18 07:13:55;;;;;;;16.93;14.90;;;27.90;47.80;;;;;;5133074;27;20400;-54
2023/08/18 07:16:21;;;;;;;15.67;14.07;;;28.00;47.70;;;;;;5132996;27;20786;-51
2023/08/18 07:18:47;;;;;;;15.93;13.73;;;28.00;47.30;;;;;;5132868;27;20536;-51
2023/08/18 07:21:13;;;;;;;16.20;13.83;;;28.00;46.70;;;;;;5132838;28;20174;-56
2023/08/18 07:23:38;;;;;;;16.83;14.43;;;28.00;46.30;;;;;;5132770;28;20174;-53
2023/08/18 07:26:04;;;;;;;17.97;14.73;;;28.00;46.60;;;;;;5132865;27;20198;-53
2023/08/18 07:28:31;;;;;;;14.43;13.03;;;28.00;46.60;;;;;;5133070;27;20194;-53
2023/08/18 07:31:03;;;;;;;19.40;15.10;;;28.00;46.90;;;;;;5133015;27;20170;-52
2023/08/18 07:33:29;;;;;;;13.17;11.73;;;28.10;47.60;;;;;;5132877;27;20921;-54
2023/08/18 07:35:55;;;;;;;16.87;15.17;;;28.20;47.10;;;;;;5132260;27;20535;-57
2023/08/18 07:38:21;;;;;;;16.20;14.80;;;28.30;47.00;;;;;;5133028;28;20483;-52
2023/08/18 07:40:46;;;;;;;18.03;16.33;;;28.40;46.70;;;;;;5133054;27;20633;-54
2023/08/18 07:43:14;;;;;;;14.97;13.47;;;28.40;46.40;;;;;;5132772;27;20688;-52
2023/08/18 07:45:40;;;;;;;16.10;14.50;;;28.50;47.00;;;;;;5134658;27;20280;-55
2023/08/18 07:48:06;;;;;;;14.47;13.07;;;28.60;47.20;;;;;;5136599;27;20455;-52
2023/08/18 07:50:32;;;;;;;15.33;13.83;;;28.70;46.40;;;;;;5135390;27;20401;-52
2023/08/18 07:52:58;;;;;;;17.33;15.47;;;28.80;46.70;;;;;;5136542;27;21247;-55
2023/08/18 07:55:24;;;;;;;15.17;13.90;;;28.90;45.60;;;;;;5136214;27;20432;-51
2023/08/18 07:57:50;;;;;;;16.30;13.37;;;29.00;46.60;;;;;;5136482;27;20411;-55
2023/08/18 08:00:17;;;;;;;17.17;15.37;;;29.10;46.00;;;;;;5136530;27;20400;-55
2023/08/18 08:02:44;;;;;;;16.00;14.50;;;29.10;45.30;;;;;;5136486;27;20202;-52
2023/08/18 08:05:10;;;;;;;15.43;14.10;;;29.10;45.90;;;;;;5136032;27;20428;-58
2023/08/18 08:07:36;;;;;;;15.87;14.57;;;29.10;46.40;;;;;;5136346;27;20464;-55
2023/08/18 08:10:04;;;;;;;14.10;12.70;;;29.20;45.70;;;;;;5136268;27;20443;-51
2023/08/18 08:12:38;;;;;;;16.30;14.60;;;29.20;46.00;;;;;;5136338;27;20405;-53
2023/08/18 08:15:05;;;;;;;14.40;13.07;;;29.30;46.50;;;;;;5134918;27;20439;-54
2023/08/18 08:17:32;;;;;;;16.97;13.47;;;29.30;46.20;;;;;;5136139;27;20417;-53
2023/08/18 08:20:00;;;;;;;14.87;13.33;;;29.40;46.00;;;;;;5135988;27;20408;-52
2023/08/18 08:22:26;;;;;;;16.10;14.60;;;29.50;45.70;;;;;;5136076;27;20422;-52
2023/08/18 08:24:54;;;;;;;15.73;14.27;;;29.50;44.20;;;;;;5135781;27;20428;-55
2023/08/18 08:27:21;;;;;;;15.77;13.93;;;29.50;45.10;;;;;;5136058;27;20419;-53
2023/08/18 08:29:47;;;;;;;15.43;13.93;;;29.50;45.80;;;;;;5135917;27;20449;-53
2023/08/18 08:32:12;;;;;;;17.13;15.43;;;29.70;45.80;;;;;;5135858;27;20411;-55
2023/08/18 08:34:40;;;;;;;16.70;15.17;;;29.70;45.20;;;;;;5135481;27;20428;-54
2023/08/18 08:37:06;;;;;;;14.13;12.80;;;29.80;44.80;;;;;;5135827;27;20639;-53
2023/08/18 08:39:35;;;;;;;15.73;14.40;;;29.90;45.30;;;;;;5135750;27;20943;-53
2023/08/18 08:42:01;;;;;;;15.10;13.90;;;30.00;45.00;;;;;;5135869;27;20396;-55
2023/08/18 08:44:26;;;;;;;15.47;14.00;;;30.00;45.20;;;;;;5135550;27;20533;-53
2023/08/18 08:46:53;;;;;;;16.53;14.53;;;30.10;45.60;;;;;;5135515;27;20699;-56
2023/08/18 08:49:21;;;;;;;14.63;13.33;;;30.20;45.50;;;;;;5135447;27;20199;-53
2023/08/18 08:51:50;;;;;;;15.30;13.70;;;30.30;46.70;;;;;;5135730;27;20428;-51
2023/08/18 08:54:19;;;;;;;15.37;13.60;;;30.40;46.20;;;;;;5135607;27;20400;-57
2023/08/18 08:56:47;;;;;;;16.70;13.13;;;30.50;46.20;;;;;;5135363;27;20430;-56
2023/08/18 08:59:15;;;;;;;15.20;13.70;;;30.60;45.90;;;;;;5135744;27;20415;-52
2023/08/18 09:01:42;;;;;;;15.37;14.07;;;30.70;46.00;;;;;;5135334;27;20511;-56
2023/08/18 09:04:08;;;;;;;15.00;13.50;;;30.70;45.40;;;;;;5135104;27;20407;-56
2023/08/18 09:06:35;;;;;;;15.80;14.30;;;30.80;44.80;;;;;;5135144;27;20933;-51
2023/08/18 09:09:01;;;;;;;13.73;12.60;;;30.90;44.10;;;;;;5135450;27;20443;-52
2023/08/18 09:11:40;;;;;;;15.53;13.93;;;30.90;44.20;;;;;;5135431;27;20488;-56
2023/08/18 09:14:06;;;;;;;15.17;13.87;;;30.90;43.20;;;;;;5134877;27;20753;-52
2023/08/18 09:16:32;;;;;;;15.53;12.23;;;30.90;44.20;;;;;;5134926;27;20963;-54
2023/08/18 09:18:58;;;;;;;12.97;11.87;;;31.00;45.00;;;;;;5134979;27;20171;-55
2023/08/18 09:21:24;;;;;;;14.40;13.20;;;31.00;44.50;;;;;;5134914;27;20935;-53
2023/08/18 09:23:56;;;;;;;14.60;13.30;;;31.00;42.10;;;;;;5134935;27;20435;-53
2023/08/18 09:26:24;;;;;;;14.53;11.57;;;31.10;44.20;;;;;;5134570;27;20277;-53
2023/08/18 09:28:50;;;;;;;13.17;11.97;;;31.10;44.70;;;;;;5134751;27;20513;-51
2023/08/18 09:31:16;;;;;;;13.10;11.90;;;31.10;44.30;;;;;;5134802;27;20396;-58
2023/08/18 09:33:43;;;;;;;15.23;13.47;;;31.20;42.90;;;;;;5134962;27;20418;-54
2023/08/18 09:36:12;;;;;;;13.90;12.60;;;31.20;43.70;;;;;;5134288;27;20451;-52
2023/08/18 09:38:42;;;;;;;14.67;13.20;;;31.30;44.20;;;;;;5134558;27;20404;-52
2023/08/18 09:41:10;;;;;;;12.03;10.80;;;31.40;41.90;;;;;;5134439;27;20400;-55
2023/08/18 09:43:37;;;;;;;13.00;11.37;;;31.30;42.70;;;;;;5134513;27;20400;-55
2023/08/18 09:46:06;;;;;;;12.47;11.30;;;31.30;40.80;;;;;;5134226;27;20416;-53
2023/08/18 09:48:39;;;;;;;11.57;10.57;;;31.40;41.50;;;;;;5134238;27;20483;-58
2023/08/18 09:51:09;;;;;;;11.90;10.70;;;31.50;42.10;;;;;;5134455;27;20407;-55
2023/08/18 09:53:39;;;;;;;12.20;10.90;;;31.50;42.60;;;;;;5134242;27;20423;-53
2023/08/18 09:56:13;;;;;;;12.07;10.97;;;31.50;42.50;;;;;;5132697;27;20971;-54
2023/08/18 09:58:57;;;;;;;9.80;8.90;;;31.60;42.60;;;;;;5134168;27;20423;-55
2023/08/18 10:01:25;;;;;;;11.70;10.63;;;31.70;42.20;;;;;;5134529;27;20863;-57
2023/08/18 10:03:53;;;;;;;10.90;10.03;;;31.80;43.10;;;;;;5134023;27;20401;-53
2023/08/18 10:06:19;;;;;;;11.63;10.63;;;31.80;42.10;;;;;;5133727;27;20459;-57
2023/08/18 10:08:45;;;;;;;11.80;10.03;;;31.90;42.90;;;;;;5133391;27;20512;-53
2023/08/18 10:11:13;;;;;;;11.27;10.30;;;32.00;41.90;;;;;;5134055;27;20392;-56
2023/08/18 10:13:40;;;;;;;15.10;9.97;;;32.10;42.00;;;;;;5134192;27;20428;-52
2023/08/18 10:16:06;;;;;;;10.80;9.77;;;32.10;40.00;;;;;;5133630;27;20421;-52
2023/08/18 10:18:32;;;;;;;8.60;7.77;;;32.10;39.50;;;;;;5133698;27;20478;-56
2023/08/18 10:20:59;;;;;;;10.40;9.60;;;32.10;37.90;;;;;;5134098;27;20753;-54
2023/08/18 10:23:29;;;;;;;9.50;8.70;;;32.10;38.10;;;;;;5133696;27;20408;-53
2023/08/18 10:25:55;;;;;;;11.60;10.50;;;32.10;37.10;;;;;;5133564;27;20420;-56
2023/08/18 10:28:27;;;;;;;9.27;8.50;;;32.10;39.10;;;;;;5133592;27;20439;-53
2023/08/18 10:31:08;;;;;;;10.03;8.80;;;32.10;39.10;;;;;;5133702;27;20392;-56
2023/08/18 10:33:44;;;;;;;10.33;9.33;;;32.20;39.10;;;;;;5133614;27;20392;-53
2023/08/18 10:36:13;;;;;;;13.90;9.13;;;32.30;40.60;;;;;;5133077;27;20522;-53
2023/08/18 10:38:41;;;;;;;13.53;12.20;;;32.40;40.80;;;;;;5133516;27;20443;-54
2023/08/18 10:41:08;;;;;;;11.57;10.50;;;32.50;40.20;;;;;;5133431;27;20404;-51
2023/08/18 10:43:51;;;;;;;15.67;10.67;;;32.60;40.30;;;;;;5133306;27;20453;-57
2023/08/18 10:46:17;;;;;;;12.90;11.70;;;32.70;40.60;;;;;;5133220;27;20511;-53
2023/08/18 10:48:45;;;;;;;10.43;9.53;;;32.70;39.50;;;;;;5133351;27;20933;-56
2023/08/18 10:51:10;;;;;;;11.10;10.20;;;32.80;39.90;;;;;;5133573;27;20396;-54
2023/08/18 10:53:38;;;;;;;12.70;11.60;;;32.90;39.00;;;;;;5133274;27;21004;-52
2023/08/18 10:56:04;;;;;;;12.97;11.87;;;32.90;38.30;;;;;;5133021;27;20186;-55
2023/08/18 10:58:31;;;;;;;15.43;13.70;;;32.90;39.60;;;;;;5133437;27;20455;-52
2023/08/18 11:00:57;;;;;;;13.57;12.37;;;33.00;41.00;;;;;;5133078;27;20404;-57
2023/08/18 11:03:25;;;;;;;12.87;11.57;;;33.10;41.10;;;;;;5133173;27;20488;-54
2023/08/18 11:05:52;;;;;;;14.10;12.90;;;33.10;41.00;;;;;;5132754;27;21010;-53
2023/08/18 11:08:18;;;;;;;14.70;10.90;;;33.20;41.00;;;;;;5132996;27;20940;-57
2023/08/18 11:10:44;;;;;;;12.57;11.53;;;33.20;41.00;;;;;;5132978;27;20400;-53
2023/08/18 11:13:21;;;;;;;13.67;12.50;;;33.30;40.30;;;;;;5131733;27;20397;-52
2023/08/18 11:15:50;;;;;;;12.60;11.47;;;33.30;39.80;;;;;;5132812;27;20470;-56
2023/08/18 11:18:16;;;;;;;12.17;11.07;;;33.30;40.20;;;;;;5132989;27;20928;-52
2023/08/18 11:20:43;;;;;;;12.93;11.10;;;33.30;40.10;;;;;;5134436;27;20412;-53
2023/08/18 11:23:09;;;;;;;13.30;11.53;;;33.40;40.20;;;;;;5137315;27;20894;-55
2023/08/18 11:25:36;;;;;;;13.47;11.90;;;33.50;39.90;;;;;;5137241;27;20513;-54
2023/08/18 11:28:02;;;;;;;13.27;11.77;;;33.50;40.00;;;;;;5137175;27;20478;-52
2023/08/18 11:30:28;;;;;;;11.87;10.77;;;33.60;39.70;;;;;;5137020;27;20477;-56
2023/08/18 11:32:54;;;;;;;12.17;11.20;;;33.60;40.10;;;;;;5137149;27;20425;-53
2023/08/18 11:35:21;;;;;;;11.13;10.17;;;33.70;39.50;;;;;;5136637;27;20459;-57
2023/08/18 11:37:49;;;;;;;11.57;10.60;;;33.70;39.00;;;;;;5136927;27;20461;-56
2023/08/18 11:40:19;;;;;;;13.57;11.83;;;33.80;39.30;;;;;;5137218;27;20404;-54
2023/08/18 11:42:46;;;;;;;10.57;9.60;;;33.90;38.70;;;;;;5136945;27;20423;-57
2023/08/18 11:45:17;;;;;;;11.17;10.07;;;33.90;36.80;;;;;;5136469;27;20477;-56
2023/08/18 11:47:55;;;;;;;12.80;11.70;;;34.00;38.00;;;;;;5136770;27;20897;-52
2023/08/18 11:50:36;;;;;;;11.77;10.60;;;34.00;37.70;;;;;;5135328;27;20456;-53
2023/08/18 11:53:07;;;;;;;11.50;10.33;;;34.00;37.30;;;;;;5136721;27;20395;-55
2023/08/18 11:55:44;;;;;;;12.67;11.23;;;34.10;38.00;;;;;;5136559;27;20424;-54
2023/08/18 11:58:14;;;;;;;11.07;10.17;;;34.20;38.30;;;;;;5136610;27;20454;-55
2023/08/18 12:00:42;;;;;;;12.20;11.10;;;34.20;37.30;;;;;;5136315;27;20545;-53
2023/08/18 12:03:20;;;;;;;12.77;11.47;;;34.20;35.80;;;;;;5136632;27;20498;-53
2023/08/18 12:05:46;;;;;;;12.77;11.40;;;34.20;37.50;;;;;;5136215;27;20413;-53
2023/08/18 12:08:12;;;;;;;21.93;11.67;;;34.30;37.50;;;;;;5136272;27;21115;-53
2023/08/18 12:10:38;;;;;;;11.80;10.70;;;34.40;36.80;;;;;;5136465;27;20400;-56
2023/08/18 12:13:04;;;;;;;15.70;11.10;;;34.50;36.60;;;;;;5136340;27;20212;-52
2023/08/18 12:15:30;;;;;;;11.53;10.53;;;34.70;37.50;;;;;;5135900;27;20420;-52
2023/08/18 12:17:56;;;;;;;12.20;11.10;;;34.80;36.50;;;;;;5136254;27;20201;-55
2023/08/18 12:20:24;;;;;;;11.83;10.77;;;34.90;36.50;;;;;;5136170;27;20432;-52
2023/08/18 12:22:51;;;;;;;12.03;10.70;;;35.10;37.50;;;;;;5136262;27;20668;-56
2023/08/18 12:25:18;;;;;;;11.67;10.67;;;35.20;37.20;;;;;;5135745;27;20435;-54
2023/08/18 12:27:48;;;;;;;12.10;10.97;;;35.30;37.50;;;;;;5136055;27;20412;-53